| time (UTC) | temp C | wind direction | speed KPH | gust KPH | rain 1hr cm | rain 24hr cm | rain mn cm | humidity % | barometer mb |
| 20260904135339 | 26 | 225 | 33.8 | 51.5 | 0.00 | 0.00 | 0.00 | 5 | 995.7 |
| 20260904134824 | 26 | 247 | 24.1 | 46.7 | 0.00 | 0.00 | 0.00 | 5 | 996.7 |
| 20260904134303 | 26 | 247 | 16.1 | 22.5 | 0.00 | 0.00 | 0.00 | 5 | 997.5 |
| 20260904134246 | 26 | 247 | 25.7 | 46.7 | 0.00 | 0.00 | 0.00 | 5 | 997.5 |
| 20260904133725 | 26 | 202 | 27.4 | 53.1 | 0.00 | 0.00 | 0.00 | 5 | 998.6 |
| 20260904133210 | 26 | 225 | 29.0 | 43.5 | 0.00 | 0.00 | 0.00 | 5 | 997.1 |
| 20260904132655 | 25 | 247 | 29.0 | 45.1 | 0.00 | 0.00 | 0.00 | 5 | 997.1 |
| 20260904132134 | 25 | 270 | 25.7 | 35.4 | 0.00 | 0.00 | 0.00 | 5 | 996.8 |
| 20260904132111 | 25 | 270 | 25.7 | 38.6 | 0.00 | 0.00 | 0.00 | 5 | 997.9 |
| 20260904131556 | 25 | 202 | 25.7 | 45.1 | 0.00 | 0.00 | 0.00 | 5 | 998.2 |
| 20260904131041 | 24 | 225 | 24.1 | 38.6 | 0.00 | 0.00 | 0.00 | 5 | 998.5 |
| 20260904130520 | 24 | 247 | 27.4 | 38.6 | 0.00 | 0.00 | 0.00 | 5 | 998.1 |
| 20260904130455 | 24 | 247 | 22.5 | 35.4 | 0.00 | 0.00 | 0.00 | 5 | 998.2 |
| 20260904125940 | 25 | 247 | 20.9 | 38.6 | 0.00 | 0.00 | 0.00 | 5 | 997.9 |
| 20260904125425 | 24 | 270 | 17.7 | 27.4 | 0.00 | 0.00 | 0.00 | 5 | 998.7 |
| 20260904124904 | 23 | 225 | 17.7 | 22.5 | 0.00 | 0.00 | 0.00 | 5 | 998.8 |
| 20260904124848 | 23 | 247 | 20.9 | 32.2 | 0.00 | 0.00 | 0.00 | 5 | 998.5 |
| 20260904124333 | 23 | 247 | 25.7 | 40.2 | 0.00 | 0.00 | 0.00 | 6 | 998.4 |
| 20260904123812 | 23 | 225 | 24.1 | 35.4 | 0.00 | 0.00 | 0.00 | 5 | 999.1 |
| 20260904123256 | 23 | 225 | 22.5 | 41.8 | 0.00 | 0.00 | 0.00 | 5 | 998.8 |
| 20260904122735 | 23 | 225 | 22.5 | 30.6 | 0.00 | 0.00 | 0.00 | 5 | 999.4 |
| 20260904122719 | 23 | 292 | 19.3 | 37.0 | 0.00 | 0.00 | 0.00 | 5 | 998.9 |
| 20260904122158 | 23 | 247 | 20.9 | 35.4 | 0.00 | 0.00 | 0.00 | 6 | 998.8 |
| 20260904121643 | 23 | 225 | 27.4 | 41.8 | 0.00 | 0.00 | 0.00 | 6 | 998.8 |
| 20260904121128 | 23 | 270 | 24.1 | 35.4 | 0.00 | 0.00 | 0.00 | 5 | 999.7 |
| 20260904120607 | 23 | 225 | 19.3 | 27.4 | 0.00 | 0.00 | 0.00 | 6 | 1000.0 |
| 20260904120552 | 23 | 247 | 22.5 | 33.8 | 0.00 | 0.00 | 0.00 | 6 | 999.2 |
| 20260904120036 | 23 | 270 | 17.7 | 33.8 | 0.00 | 0.00 | 0.00 | 6 | 999.7 |
| 20260904115515 | 23 | 247 | 24.1 | 41.8 | 0.00 | 0.00 | 0.00 | 6 | 999.9 |
| 20260904115000 | 23 | 202 | 22.5 | 32.2 | 0.00 | 0.00 | 0.00 | 6 | 1000.5 |
| 20260904114439 | 23 | 247 | 19.3 | 27.4 | 0.00 | 0.00 | 0.00 | 6 | 999.5 |
| 20260904114423 | 23 | 270 | 24.1 | 43.5 | 0.00 | 0.00 | 0.00 | 6 | 999.7 |
| 20260904113902 | 22 | 270 | 29.0 | 43.5 | 0.00 | 0.00 | 0.00 | 6 | 999.7 |
| 20260904113347 | 22 | 247 | 29.0 | 46.7 | 0.00 | 0.00 | 0.00 | 6 | 999.6 |
| 20260904112832 | 22 | 247 | 27.4 | 41.8 | 0.00 | 0.00 | 0.00 | 6 | 999.7 |
| 20260904112311 | 22 | 247 | 22.5 | 30.6 | 0.00 | 0.00 | 0.00 | 6 | 999.3 |
| 20260904112248 | 22 | 247 | 25.7 | 43.5 | 0.00 | 0.00 | 0.00 | 6 | 999.7 |
| 20260904111732 | 22 | 270 | 20.9 | 35.4 | 0.00 | 0.00 | 0.00 | 6 | 999.9 |
| 20260904111217 | 22 | 225 | 24.1 | 40.2 | 0.00 | 0.00 | 0.00 | 6 | 1000.2 |
| 20260904110657 | 22 | 247 | 16.1 | 24.1 | 0.00 | 0.00 | 0.00 | 6 | 1000.4 |
| 20260904110640 | 22 | 247 | 25.7 | 40.2 | 0.00 | 0.00 | 0.00 | 6 | 1000.5 |
| 20260904110125 | 22 | 247 | 25.7 | 40.2 | 0.00 | 0.00 | 0.00 | 6 | 1001.5 |
| 20260904105604 | 22 | 270 | 20.9 | 38.6 | 0.00 | 0.00 | 0.00 | 6 | 1000.9 |
| 20260904105049 | 22 | 225 | 25.7 | 46.7 | 0.00 | 0.00 | 0.00 | 6 | 1001.2 |
| 20260904104528 | 22 | 247 | 25.7 | 33.8 | 0.00 | 0.00 | 0.00 | 6 | 1001.3 |
| 20260904104512 | 22 | 225 | 22.5 | 35.4 | 0.00 | 0.00 | 0.00 | 6 | 1000.9 |
| 20260904103951 | 22 | 225 | 27.4 | 41.8 | 0.00 | 0.00 | 0.00 | 6 | 1001.6 |
| 20260904103436 | 22 | 180 | 24.1 | 43.5 | 0.00 | 0.00 | 0.00 | 6 | 1001.6 |
| 20260904102921 | 21 | 202 | 27.4 | 41.8 | 0.00 | 0.00 | 0.00 | 6 | 1002.2 |
| 20260904102400 | 21 | 225 | 27.4 | 33.8 | 0.00 | 0.00 | 0.00 | 6 | 1002.1 |
| 20260904102337 | 21 | 247 | 24.1 | 40.2 | 0.00 | 0.00 | 0.00 | 6 | 1002.3 |
| 20260904101822 | 21 | 225 | 20.9 | 33.8 | 0.00 | 0.00 | 0.00 | 6 | 1002.5 |
| 20260904101307 | 21 | 225 | 25.7 | 40.2 | 0.00 | 0.00 | 0.00 | 6 | 1002.0 |
| 20260904100744 | 21 | 247 | 30.6 | 38.6 | 0.00 | 0.00 | 0.00 | 7 | 1002.5 |
| 20260904100729 | 21 | 225 | 24.1 | 37.0 | 0.00 | 0.00 | 0.00 | 7 | 1002.7 |
| 20260904100214 | 21 | 247 | 32.2 | 46.7 | 0.00 | 0.00 | 0.00 | 7 | 1002.0 |
| 20260904095653 | 21 | 247 | 32.2 | 48.3 | 0.00 | 0.00 | 0.00 | 7 | 1002.1 |
| 20260904095138 | 21 | 225 | 29.0 | 41.8 | 0.00 | 0.00 | 0.00 | 7 | 1002.2 |
| 20260904094617 | 21 | 225 | 25.7 | 37.0 | 0.00 | 0.00 | 0.00 | 7 | 1002.6 |
| 20260904094601 | 21 | 225 | 29.0 | 48.3 | 0.00 | 0.00 | 0.00 | 7 | 1002.2 |
| 20260904094040 | 21 | 202 | 27.4 | 45.1 | 0.00 | 0.00 | 0.00 | 7 | 1002.4 |
| 20260904093524 | 21 | 247 | 24.1 | 37.0 | 0.00 | 0.00 | 0.00 | 6 | 1001.8 |
| 20260904093009 | 21 | 225 | 25.7 | 41.8 | 0.00 | 0.00 | 0.00 | 6 | 1002.4 |
| 20260904092448 | 21 | 225 | 17.7 | 27.4 | 0.00 | 0.00 | 0.00 | 6 | 1002.9 |
| 20260904092433 | 21 | 225 | 24.1 | 41.8 | 0.00 | 0.00 | 0.00 | 6 | 1003.1 |
| 20260904091912 | 21 | 270 | 27.4 | 40.2 | 0.00 | 0.00 | 0.00 | 6 | 1001.7 |
| 20260904091356 | 21 | 270 | 29.0 | 46.7 | 0.00 | 0.00 | 0.00 | 7 | 1002.5 |
| 20260904090841 | 21 | 247 | 25.7 | 46.7 | 0.00 | 0.00 | 0.00 | 7 | 1002.6 |
| 20260904090321 | 20 | 247 | 20.9 | 29.0 | 0.00 | 0.00 | 0.00 | 7 | 1003.4 |
| 20260904090257 | 20 | 202 | 24.1 | 38.6 | 0.00 | 0.00 | 0.00 | 7 | 1003.4 |
| 20260904085742 | 20 | 270 | 22.5 | 41.8 | 0.00 | 0.00 | 0.00 | 7 | 1003.0 |
| 20260904085227 | 20 | 225 | 24.1 | 40.2 | 0.00 | 0.00 | 0.00 | 7 | 1002.5 |
| 20260904084706 | 20 | 247 | 17.7 | 22.5 | 0.00 | 0.00 | 0.00 | 7 | 1002.1 |
| 20260904084642 | 20 | 270 | 20.9 | 33.8 | 0.00 | 0.00 | 0.00 | 7 | 1003.2 |
| 20260904084126 | 20 | 225 | 24.1 | 37.0 | 0.00 | 0.00 | 0.00 | 7 | 1003.6 |
| 20260904083611 | 20 | 247 | 24.1 | 38.6 | 0.00 | 0.00 | 0.00 | 7 | 1004.0 |
| 20260904083050 | 20 | 225 | 22.5 | 30.6 | 0.00 | 0.00 | 0.00 | 7 | 1002.8 |
| 20260904083032 | 20 | 225 | 25.7 | 45.1 | 0.00 | 0.00 | 0.00 | 7 | 1002.5 |
| 20260904082517 | 19 | 225 | 20.9 | 35.4 | 0.00 | 0.00 | 0.00 | 7 | 1003.6 |
| 20260904081956 | 19 | 225 | 17.7 | 27.4 | 0.00 | 0.00 | 0.00 | 7 | 1004.0 |
| 20260904081435 | 18 | 247 | 16.1 | 20.9 | 0.00 | 0.00 | 0.00 | 7 | 1003.2 |
| 20260904081418 | 18 | 225 | 20.9 | 33.8 | 0.00 | 0.00 | 0.00 | 7 | 1003.0 |
| 20260904080903 | 18 | 247 | 20.9 | 32.2 | 0.00 | 0.00 | 0.00 | 7 | 1003.3 |
| 20260904080342 | 18 | 225 | 20.9 | 35.4 | 0.00 | 0.00 | 0.00 | 7 | 1004.1 |
| 20260904075827 | 18 | 225 | 19.3 | 27.4 | 0.00 | 0.00 | 0.00 | 7 | 1004.2 |
| 20260904075307 | 18 | 225 | 14.5 | 19.3 | 0.00 | 0.00 | 0.00 | 7 | 1002.7 |
| 20260904075250 | 18 | 270 | 19.3 | 30.6 | 0.00 | 0.00 | 0.00 | 7 | 1002.6 |
| 20260904074729 | 18 | 270 | 22.5 | 37.0 | 0.00 | 0.00 | 0.00 | 7 | 1002.9 |
| 20260904074214 | 17 | 225 | 22.5 | 38.6 | 0.00 | 0.00 | 0.00 | 7 | 1003.5 |
| 20260904073659 | 17 | 247 | 20.9 | 32.2 | 0.00 | 0.00 | 0.00 | 7 | 1003.6 |
| 20260904073138 | 17 | 225 | 17.7 | 25.7 | 0.00 | 0.00 | 0.00 | 7 | 1003.4 |
| 20260904073122 | 17 | 202 | 24.1 | 32.2 | 0.00 | 0.00 | 0.00 | 7 | 1003.4 |
| 20260904072601 | 17 | 225 | 22.5 | 35.4 | 0.00 | 0.00 | 0.00 | 7 | 1003.5 |
| 20260904072046 | 17 | 225 | 22.5 | 33.8 | 0.00 | 0.00 | 0.00 | 7 | 1004.2 |
| 20260904071531 | 17 | 225 | 22.5 | 32.2 | 0.00 | 0.00 | 0.00 | 7 | 1004.0 |
| 20260904071010 | 17 | 225 | 20.9 | 27.4 | 0.00 | 0.00 | 0.00 | 8 | 1003.8 |
| 20260904070954 | 17 | 247 | 24.1 | 38.6 | 0.00 | 0.00 | 0.00 | 8 | 1003.6 |
| 20260904070439 | 17 | 225 | 25.7 | 35.4 | 0.00 | 0.00 | 0.00 | 8 | 1003.4 |
| 20260904065918 | 17 | 225 | 27.4 | 41.8 | 0.00 | 0.00 | 0.00 | 7 | 1003.7 |
| 20260904065403 | 17 | 225 | 25.7 | 37.0 | 0.00 | 0.00 | 0.00 | 7 | 1003.7 |
| 20260904064842 | 16 | 247 | 20.9 | 27.4 | 0.00 | 0.00 | 0.00 | 8 | 1004.0 |
| 20260904064826 | 16 | 247 | 25.7 | 37.0 | 0.00 | 0.00 | 0.00 | 8 | 1004.1 |
| 20260904064306 | 16 | 225 | 20.9 | 29.0 | 0.00 | 0.00 | 0.00 | 8 | 1003.5 |
| 20260904063750 | 16 | 247 | 24.1 | 38.6 | 0.00 | 0.00 | 0.00 | 8 | 1004.0 |
| 20260904063235 | 16 | 247 | 24.1 | 40.2 | 0.00 | 0.00 | 0.00 | 8 | 1004.5 |
| 20260904062714 | 16 | 225 | 20.9 | 27.4 | 0.00 | 0.00 | 0.00 | 8 | 1003.3 |
| 20260904062658 | 16 | 247 | 22.5 | 35.4 | 0.00 | 0.00 | 0.00 | 8 | 1003.9 |
| 20260904062137 | 16 | 225 | 24.1 | 35.4 | 0.00 | 0.00 | 0.00 | 8 | 1004.6 |
| 20260904061622 | 16 | 225 | 25.7 | 37.0 | 0.00 | 0.00 | 0.00 | 8 | 1004.2 |
| 20260904061107 | 16 | 247 | 25.7 | 37.0 | 0.00 | 0.00 | 0.00 | 8 | 1003.9 |
| 20260904060547 | 16 | 247 | 25.7 | 33.8 | 0.00 | 0.00 | 0.00 | 8 | 1003.3 |
| 20260904060523 | 16 | 270 | 27.4 | 38.6 | 0.00 | 0.00 | 0.00 | 8 | 1003.0 |
| 20260904060008 | 16 | 247 | 24.1 | 35.4 | 0.00 | 0.00 | 0.00 | 8 | 1003.3 |
| 20260904055453 | 16 | 247 | 24.1 | 38.6 | 0.00 | 0.00 | 0.00 | 8 | 1003.7 |
| 20260904054932 | 16 | 247 | 17.7 | 25.7 | 0.00 | 0.00 | 0.00 | 8 | 1003.9 |
| 20260904054907 | 16 | 247 | 24.1 | 37.0 | 0.00 | 0.00 | 0.00 | 8 | 1003.6 |
| 20260904054352 | 16 | 202 | 19.3 | 27.4 | 0.00 | 0.00 | 0.00 | 8 | 1004.6 |
| 20260904053837 | 16 | 270 | 16.1 | 27.4 | 0.00 | 0.00 | 0.00 | 8 | 1002.9 |
| 20260904053316 | 16 | 225 | 22.5 | 30.6 | 0.00 | 0.00 | 0.00 | 8 | 1003.9 |
| 20260904053252 | 16 | 202 | 24.1 | 32.2 | 0.00 | 0.00 | 0.00 | 8 | 1004.6 |
| 20260904052737 | 15 | 225 | 20.9 | 32.2 | 0.00 | 0.00 | 0.00 | 8 | 1004.5 |
| 20260904052222 | 16 | 225 | 22.5 | 37.0 | 0.00 | 0.00 | 0.00 | 8 | 1004.6 |
| 20260904051701 | 15 | 225 | 17.7 | 24.1 | 0.00 | 0.00 | 0.00 | 8 | 1003.8 |
| 20260904051644 | 15 | 225 | 19.3 | 33.8 | 0.00 | 0.00 | 0.00 | 8 | 1003.2 |
| 20260904051123 | 15 | 247 | 19.3 | 30.6 | 0.00 | 0.00 | 0.00 | 8 | 1003.4 |
| 20260904050608 | 15 | 225 | 24.1 | 37.0 | 0.00 | 0.00 | 0.00 | 8 | 1004.6 |
| 20260904050053 | 15 | 225 | 25.7 | 37.0 | 0.00 | 0.00 | 0.00 | 8 | 1004.4 |
| 20260904045532 | 15 | 247 | 20.9 | 29.0 | 0.00 | 0.00 | 0.00 | 8 | 1004.1 |
| 20260904045516 | 15 | 247 | 24.1 | 33.8 | 0.00 | 0.00 | 0.00 | 8 | 1004.5 |
| 20260904044955 | 15 | 247 | 24.1 | 35.4 | 0.00 | 0.00 | 0.00 | 8 | 1004.5 |
| 20260904044440 | 15 | 247 | 22.5 | 37.0 | 0.00 | 0.00 | 0.00 | 8 | 1004.5 |
| 20260904043925 | 15 | 202 | 20.9 | 33.8 | 0.00 | 0.00 | 0.00 | 8 | 1005.0 |
| 20260904043404 | 15 | 202 | 19.3 | 29.0 | 0.00 | 0.00 | 0.00 | 8 | 1006.0 |
| 20260904043340 | 15 | 225 | 20.9 | 30.6 | 0.00 | 0.00 | 0.00 | 8 | 1005.1 |
| 20260904042825 | 15 | 247 | 17.7 | 27.4 | 0.00 | 0.00 | 0.00 | 8 | 1005.4 |
| 20260904042310 | 15 | 247 | 14.5 | 24.1 | 0.00 | 0.00 | 0.00 | 8 | 1004.7 |
| 20260904041749 | 15 | 247 | 14.5 | 20.9 | 0.00 | 0.00 | 0.00 | 8 | 1004.2 |
| 20260904041725 | 15 | 225 | 14.5 | 24.1 | 0.00 | 0.00 | 0.00 | 8 | 1005.0 |
| 20260904041210 | 15 | 247 | 14.5 | 22.5 | 0.00 | 0.00 | 0.00 | 8 | 1004.7 |
| 20260904040655 | 15 | 247 | 12.9 | 20.9 | 0.00 | 0.00 | 0.00 | 8 | 1003.5 |
| 20260904040134 | 15 | 225 | 11.3 | 14.5 | 0.00 | 0.00 | 0.00 | 8 | 1003.9 |
| 20260904040116 | 15 | 202 | 11.3 | 17.7 | 0.00 | 0.00 | 0.00 | 8 | 1003.6 |
| 20260904035601 | 15 | 225 | 11.3 | 20.9 | 0.00 | 0.00 | 0.00 | 8 | 1005.0 |
| 20260904035040 | 15 | 247 | 17.7 | 29.0 | 0.00 | 0.00 | 0.00 | 8 | 1004.1 |
| 20260904034519 | 15 | 225 | 16.1 | 20.9 | 0.00 | 0.00 | 0.00 | 8 | 1004.2 |
| 20260904034502 | 15 | 225 | 16.1 | 25.7 | 0.00 | 0.00 | 0.00 | 8 | 1003.9 |
| 20260904033947 | 15 | 225 | 16.1 | 30.6 | 0.00 | 0.00 | 0.00 | 8 | 1004.2 |
| 20260904033426 | 15 | 247 | 16.1 | 29.0 | 0.00 | 0.00 | 0.00 | 8 | 1004.6 |
| 20260904032911 | 15 | 247 | 17.7 | 25.7 | 0.00 | 0.00 | 0.00 | 8 | 1005.0 |
| 20260904032350 | 15 | 225 | 14.5 | 19.3 | 0.00 | 0.00 | 0.00 | 8 | 1004.4 |
| 20260904032334 | 15 | 225 | 16.1 | 27.4 | 0.00 | 0.00 | 0.00 | 8 | 1004.1 |
| 20260904031813 | 15 | 225 | 17.7 | 25.7 | 0.00 | 0.00 | 0.00 | 8 | 1004.9 |
| 20260904031258 | 15 | 225 | 17.7 | 24.1 | 0.00 | 0.00 | 0.00 | 8 | 1006.0 |
| 20260904030743 | 15 | 247 | 16.1 | 25.7 | 0.00 | 0.00 | 0.00 | 8 | 1004.0 |
| 20260904030222 | 15 | 225 | 16.1 | 20.9 | 0.00 | 0.00 | 0.00 | 8 | 1005.6 |
| 20260904030206 | 15 | 225 | 14.5 | 22.5 | 0.00 | 0.00 | 0.00 | 8 | 1005.5 |
| 20260904025645 | 15 | 225 | 16.1 | 22.5 | 0.00 | 0.00 | 0.00 | 8 | 1004.2 |
| 20260904025130 | 15 | 247 | 14.5 | 25.7 | 0.00 | 0.00 | 0.00 | 8 | 1005.2 |
| 20260904024615 | 15 | 225 | 16.1 | 27.4 | 0.00 | 0.00 | 0.00 | 8 | 1005.1 |
| 20260904024054 | 15 | 247 | 14.5 | 20.9 | 0.00 | 0.00 | 0.00 | 8 | 1005.8 |
| 20260904024030 | 15 | 247 | 14.5 | 24.1 | 0.00 | 0.00 | 0.00 | 8 | 1005.1 |
| 20260904023515 | 15 | 247 | 12.9 | 25.7 | 0.00 | 0.00 | 0.00 | 9 | 1005.1 |
| 20260904023000 | 15 | 247 | 17.7 | 27.4 | 0.00 | 0.00 | 0.00 | 9 | 1005.7 |
| 20260904022439 | 15 | 247 | 17.7 | 24.1 | 0.00 | 0.00 | 0.00 | 9 | 1005.8 |
| 20260904022422 | 15 | 225 | 17.7 | 25.7 | 0.00 | 0.00 | 0.00 | 9 | 1005.6 |
| 20260904021902 | 15 | 270 | 16.1 | 25.7 | 0.00 | 0.00 | 0.00 | 9 | 1005.6 |
| 20260904021346 | 15 | 247 | 14.5 | 25.7 | 0.00 | 0.00 | 0.00 | 9 | 1006.1 |
| 20260904020831 | 15 | 270 | 16.1 | 25.7 | 0.00 | 0.00 | 0.00 | 9 | 1006.3 |
| 20260904020310 | 15 | 247 | 14.5 | 17.7 | 0.00 | 0.00 | 0.00 | 9 | 1005.8 |
| 20260904020246 | 15 | 225 | 16.1 | 27.4 | 0.00 | 0.00 | 0.00 | 9 | 1005.8 |
| 20260904015731 | 15 | 247 | 11.3 | 20.9 | 0.00 | 0.00 | 0.00 | 8 | 1004.8 |
| 20260904015216 | 15 | 247 | 11.3 | 20.9 | 0.00 | 0.00 | 0.00 | 8 | 1005.3 |
| 20260904014655 | 15 | 247 | 11.3 | 16.1 | 0.00 | 0.00 | 0.00 | 9 | 1005.3 |
| 20260904014639 | 15 | 247 | 12.9 | 25.7 | 0.00 | 0.00 | 0.00 | 8 | 1005.1 |
| 20260904014118 | 15 | 247 | 12.9 | 20.9 | 0.00 | 0.00 | 0.00 | 8 | 1005.8 |
| 20260904013603 | 15 | 247 | 14.5 | 20.9 | 0.00 | 0.00 | 0.00 | 8 | 1006.1 |
| 20260904013048 | 15 | 270 | 14.5 | 22.5 | 0.00 | 0.00 | 0.00 | 9 | 1005.3 |
| 20260904012527 | 15 | 270 | 12.9 | 16.1 | 0.00 | 0.00 | 0.00 | 8 | 1005.4 |
| 20260904012503 | 15 | 225 | 16.1 | 25.7 | 0.00 | 0.00 | 0.00 | 8 | 1006.0 |
| 20260904011948 | 15 | 225 | 16.1 | 25.7 | 0.00 | 0.00 | 0.00 | 9 | 1005.1 |
| 20260904011433 | 15 | 225 | 17.7 | 25.7 | 0.00 | 0.00 | 0.00 | 9 | 1006.5 |
| 20260904010912 | 15 | 225 | 12.9 | 14.5 | 0.00 | 0.00 | 0.00 | 8 | 1005.8 |
| 20260904010848 | 15 | 225 | 14.5 | 22.5 | 0.00 | 0.00 | 0.00 | 8 | 1006.3 |
| 20260904010333 | 15 | 270 | 17.7 | 25.7 | 0.00 | 0.00 | 0.00 | 9 | 1006.1 |
| 20260904005818 | 15 | 225 | 16.1 | 24.1 | 0.00 | 0.00 | 0.00 | 9 | 1006.4 |
| 20260904005256 | 15 | 247 | 17.7 | 25.7 | 0.00 | 0.00 | 0.00 | 9 | 1006.5 |
| 20260904005238 | 15 | 225 | 16.1 | 25.7 | 0.00 | 0.00 | 0.00 | 9 | 1005.8 |
| 20260904004717 | 15 | 225 | 16.1 | 24.1 | 0.00 | 0.00 | 0.00 | 9 | 1005.7 |
| 20260904004202 | 15 | 247 | 17.7 | 29.0 | 0.00 | 0.00 | 0.00 | 9 | 1006.0 |
| 20260904003641 | 15 | 247 | 16.1 | 20.9 | 0.00 | 0.00 | 0.00 | 9 | 1006.0 |
| 20260904003624 | 15 | 270 | 16.1 | 22.5 | 0.00 | 0.00 | 0.00 | 9 | 1006.2 |
| 20260904003104 | 15 | 247 | 17.7 | 25.7 | 0.00 | 0.00 | 0.00 | 9 | 1005.3 |
| 20260904002548 | 15 | 225 | 19.3 | 27.4 | 0.00 | 0.00 | 0.00 | 9 | 1006.1 |
| 20260904002033 | 15 | 247 | 22.5 | 33.8 | 0.00 | 0.00 | 0.00 | 9 | 1006.1 |
| 20260904001512 | 15 | 225 | 17.7 | 22.5 | 0.00 | 0.00 | 0.00 | 9 | 1006.6 |
| 20260904001457 | 15 | 225 | 19.3 | 29.0 | 0.00 | 0.00 | 0.00 | 9 | 1005.9 |
| 20260904000935 | 15 | 225 | 19.3 | 29.0 | 0.00 | 0.00 | 0.00 | 9 | 1006.4 |
| 20260904000420 | 15 | 247 | 17.7 | 29.0 | 0.00 | 0.00 | 0.00 | 9 | 1007.0 |
| 20260903235905 | 15 | 247 | 19.3 | 25.7 | 0.00 | 0.00 | 0.03 | 9 | 1006.6 |
| 20260903235344 | 15 | 247 | 12.9 | 16.1 | 0.00 | 0.00 | 0.03 | 9 | 1007.0 |
| 20260903235329 | 15 | 270 | 19.3 | 29.0 | 0.00 | 0.00 | 0.03 | 9 | 1006.8 |
| 20260903234814 | 15 | 225 | 17.7 | 27.4 | 0.00 | 0.00 | 0.03 | 9 | 1006.1 |
| 20260903234253 | 15 | 247 | 19.3 | 30.6 | 0.00 | 0.00 | 0.03 | 9 | 1007.0 |
| 20260903233738 | 15 | 225 | 19.3 | 29.0 | 0.00 | 0.00 | 0.03 | 9 | 1006.7 |
| 20260903233216 | 15 | 247 | 11.3 | 17.7 | 0.00 | 0.00 | 0.03 | 9 | 1007.2 |
| 20260903233201 | 15 | 270 | 16.1 | 27.4 | 0.00 | 0.00 | 0.03 | 9 | 1006.8 |
| 20260903232640 | 15 | 270 | 17.7 | 27.4 | 0.00 | 0.00 | 0.03 | 9 | 1006.4 |
| 20260903232125 | 15 | 270 | 17.7 | 29.0 | 0.00 | 0.00 | 0.03 | 9 | 1006.8 |
| 20260903231610 | 15 | 247 | 16.1 | 24.1 | 0.00 | 0.00 | 0.03 | 9 | 1007.3 |
| 20260903231049 | 15 | 247 | 9.7 | 14.5 | 0.00 | 0.00 | 0.03 | 9 | 1007.5 |
| 20260903231033 | 15 | 247 | 16.1 | 25.7 | 0.00 | 0.00 | 0.03 | 9 | 1007.6 |
| 20260903230512 | 15 | 247 | 14.5 | 22.5 | 0.00 | 0.00 | 0.03 | 9 | 1007.6 |
| 20260903225957 | 15 | 247 | 14.5 | 24.1 | 0.00 | 0.00 | 0.03 | 9 | 1007.0 |
| 20260903225441 | 15 | 247 | 17.7 | 25.7 | 0.00 | 0.00 | 0.03 | 9 | 1007.4 |
| 20260903224920 | 15 | 247 | 9.7 | 14.5 | 0.00 | 0.00 | 0.03 | 9 | 1007.8 |
| 20260903224903 | 15 | 247 | 17.7 | 25.7 | 0.00 | 0.00 | 0.03 | 9 | 1007.1 |
| 20260903224348 | 15 | 247 | 17.7 | 25.7 | 0.00 | 0.00 | 0.03 | 9 | 1007.8 |
| 20260903223827 | 15 | 247 | 16.1 | 24.1 | 0.00 | 0.00 | 0.03 | 9 | 1007.4 |
| 20260903223306 | 15 | 270 | 9.7 | 11.3 | 0.00 | 0.00 | 0.03 | 9 | 1007.9 |
| 20260903223249 | 15 | 247 | 19.3 | 32.2 | 0.00 | 0.00 | 0.03 | 9 | 1007.6 |
| 20260903222734 | 15 | 270 | 19.3 | 27.4 | 0.00 | 0.00 | 0.03 | 9 | 1008.0 |
| 20260903222213 | 15 | 225 | 16.1 | 29.0 | 0.00 | 0.00 | 0.03 | 9 | 1007.1 |
| 20260903221658 | 15 | 247 | 17.7 | 27.4 | 0.00 | 0.00 | 0.03 | 9 | 1007.9 |
| 20260903221137 | 15 | 247 | 12.9 | 19.3 | 0.00 | 0.00 | 0.03 | 9 | 1006.8 |
| 20260903221121 | 15 | 270 | 19.3 | 30.6 | 0.00 | 0.00 | 0.03 | 9 | 1007.1 |
| 20260903220600 | 15 | 247 | 19.3 | 32.2 | 0.00 | 0.00 | 0.03 | 9 | 1008.0 |
| 20260903220045 | 15 | 225 | 19.3 | 30.6 | 0.00 | 0.00 | 0.03 | 9 | 1008.0 |
| 20260903215530 | 15 | 247 | 19.3 | 33.8 | 0.00 | 0.00 | 0.03 | 9 | 1007.3 |
| 20260903215009 | 15 | 225 | 14.5 | 20.9 | 0.00 | 0.00 | 0.03 | 9 | 1007.6 |
| 20260903214946 | 15 | 225 | 17.7 | 27.4 | 0.00 | 0.00 | 0.03 | 9 | 1008.2 |
| 20260903214431 | 15 | 247 | 19.3 | 29.0 | 0.00 | 0.00 | 0.03 | 9 | 1007.5 |
| 20260903213916 | 15 | 247 | 17.7 | 27.4 | 0.00 | 0.00 | 0.03 | 9 | 1007.7 |
| 20260903213355 | 15 | 247 | 9.7 | 14.5 | 0.00 | 0.00 | 0.03 | 8 | 1008.0 |
| 20260903213330 | 15 | 202 | 19.3 | 30.6 | 0.00 | 0.00 | 0.03 | 8 | 1008.5 |
| 20260903212815 | 15 | 225 | 19.3 | 27.4 | 0.00 | 0.00 | 0.03 | 8 | 1007.4 |
| 20260903212300 | 15 | 225 | 17.7 | 29.0 | 0.00 | 0.00 | 0.03 | 8 | 1007.9 |
| 20260903211739 | 15 | 225 | 14.5 | 19.3 | 0.00 | 0.00 | 0.03 | 9 | 1008.5 |
| 20260903211723 | 15 | 225 | 17.7 | 29.0 | 0.00 | 0.00 | 0.03 | 9 | 1007.9 |
| 20260903211208 | 15 | 247 | 17.7 | 30.6 | 0.00 | 0.00 | 0.03 | 9 | 1007.8 |
| 20260903210647 | 15 | 247 | 19.3 | 30.6 | 0.00 | 0.00 | 0.03 | 9 | 1008.6 |
| 20260903210131 | 15 | 247 | 19.3 | 32.2 | 0.00 | 0.00 | 0.03 | 9 | 1008.2 |
| 20260903205610 | 15 | 247 | 12.9 | 17.7 | 0.00 | 0.00 | 0.03 | 8 | 1008.2 |
| 20260903205554 | 15 | 225 | 17.7 | 27.4 | 0.00 | 0.00 | 0.03 | 8 | 1008.6 |
| 20260903205033 | 15 | 225 | 17.7 | 27.4 | 0.00 | 0.00 | 0.03 | 9 | 1007.6 |
| 20260903204518 | 15 | 225 | 17.7 | 30.6 | 0.00 | 0.00 | 0.03 | 9 | 1008.8 |
| 20260903204003 | 15 | 247 | 14.5 | 27.4 | 0.00 | 0.00 | 0.03 | 9 | 1008.6 |
| 20260903203442 | 15 | 270 | 8.0 | 11.3 | 0.00 | 0.00 | 0.03 | 8 | 1008.5 |
| 20260903203424 | 15 | 247 | 12.9 | 20.9 | 0.00 | 0.00 | 0.03 | 8 | 1009.1 |
| 20260903202903 | 15 | 270 | 16.1 | 25.7 | 0.00 | 0.00 | 0.03 | 9 | 1008.9 |
| 20260903202348 | 15 | 270 | 16.1 | 27.4 | 0.00 | 0.00 | 0.03 | 9 | 1008.8 |
| 20260903201827 | 15 | 247 | 11.3 | 16.1 | 0.00 | 0.00 | 0.03 | 8 | 1008.7 |
| 20260903201810 | 15 | 225 | 16.1 | 27.4 | 0.00 | 0.00 | 0.03 | 8 | 1008.6 |
| 20260903201250 | 15 | 270 | 17.7 | 29.0 | 0.00 | 0.00 | 0.03 | 9 | 1009.1 |
| 20260903200734 | 15 | 225 | 19.3 | 29.0 | 0.00 | 0.00 | 0.03 | 9 | 1008.9 |
| 20260903200219 | 15 | 270 | 19.3 | 32.2 | 0.00 | 0.00 | 0.03 | 9 | 1009.2 |
| 20260903195658 | 15 | 247 | 20.9 | 29.0 | 0.00 | 0.00 | 0.03 | 8 | 1009.0 |
| 20260903195642 | 15 | 225 | 16.1 | 27.4 | 0.00 | 0.00 | 0.03 | 8 | 1009.0 |
| 20260903195121 | 15 | 225 | 16.1 | 27.4 | 0.00 | 0.00 | 0.03 | 8 | 1008.7 |
| 20260903194606 | 15 | 247 | 17.7 | 30.6 | 0.00 | 0.00 | 0.03 | 9 | 1009.0 |
| 20260903194051 | 15 | 247 | 20.9 | 30.6 | 0.00 | 0.00 | 0.03 | 9 | 1008.7 |
| 20260903193530 | 15 | 225 | 16.1 | 22.5 | 0.00 | 0.00 | 0.03 | 8 | 1009.2 |
| 20260903193513 | 15 | 225 | 17.7 | 27.4 | 0.00 | 0.00 | 0.03 | 8 | 1009.2 |
| 20260903192952 | 15 | 225 | 19.3 | 29.0 | 0.00 | 0.00 | 0.03 | 8 | 1008.7 |
| 20260903192437 | 15 | 225 | 20.9 | 30.6 | 0.00 | 0.00 | 0.03 | 8 | 1008.0 |
| 20260903191916 | 15 | 225 | 20.9 | 30.6 | 0.00 | 0.00 | 0.03 | 8 | 1008.7 |
| 20260903191859 | 15 | 225 | 19.3 | 30.6 | 0.00 | 0.00 | 0.03 | 8 | 1008.4 |
| 20260903191338 | 15 | 247 | 17.7 | 29.0 | 0.00 | 0.00 | 0.03 | 8 | 1008.1 |
| 20260903190823 | 15 | 225 | 19.3 | 32.2 | 0.00 | 0.00 | 0.03 | 8 | 1008.6 |
| 20260903190308 | 15 | 225 | 17.7 | 27.4 | 0.00 | 0.00 | 0.03 | 8 | 1008.4 |
| 20260903185747 | 15 | 225 | 16.1 | 20.9 | 0.00 | 0.00 | 0.03 | 8 | 1008.6 |
| 20260903185723 | 15 | 225 | 19.3 | 25.7 | 0.00 | 0.00 | 0.03 | 8 | 1008.2 |
| 20260903185208 | 15 | 225 | 16.1 | 24.1 | 0.00 | 0.00 | 0.03 | 8 | 1008.0 |
| 20260903184653 | 15 | 202 | 16.1 | 24.1 | 0.00 | 0.00 | 0.03 | 7 | 1007.8 |
| 20260903184132 | 16 | 247 | 17.7 | 24.1 | 0.00 | 0.00 | 0.03 | 8 | 1007.3 |
| 20260903184115 | 16 | 247 | 14.5 | 24.1 | 0.00 | 0.00 | 0.03 | 8 | 1007.7 |
| 20260903183554 | 16 | 247 | 12.9 | 19.3 | 0.00 | 0.00 | 0.03 | 7 | 1007.7 |
| 20260903183039 | 16 | 270 | 12.9 | 22.5 | 0.00 | 0.00 | 0.03 | 8 | 1008.0 |
| 20260903182524 | 16 | 247 | 12.9 | 17.7 | 0.00 | 0.00 | 0.03 | 8 | 1008.7 |
| 20260903182003 | 16 | 247 | 9.7 | 12.9 | 0.00 | 0.00 | 0.03 | 8 | 1008.3 |
| 20260903181940 | 16 | 270 | 11.3 | 25.7 | 0.00 | 0.00 | 0.03 | 8 | 1007.8 |
| 20260903181425 | 16 | 247 | 12.9 | 20.9 | 0.00 | 0.00 | 0.03 | 8 | 1007.4 |
| 20260903180909 | 16 | 225 | 11.3 | 17.7 | 0.00 | 0.00 | 0.03 | 7 | 1007.9 |
| 20260903180348 | 16 | 247 | 9.7 | 12.9 | 0.00 | 0.00 | 0.03 | 8 | 1008.6 |
| 20260903180332 | 16 | 225 | 11.3 | 22.5 | 0.00 | 0.00 | 0.03 | 8 | 1008.2 |
| 20260903175811 | 16 | 270 | 12.9 | 24.1 | 0.00 | 0.00 | 0.03 | 8 | 1008.7 |
| 20260903175255 | 16 | 247 | 16.1 | 29.0 | 0.00 | 0.00 | 0.03 | 8 | 1007.8 |
| 20260903174740 | 16 | 270 | 17.7 | 29.0 | 0.00 | 0.00 | 0.03 | 8 | 1007.5 |
| 20260903174219 | 16 | 247 | 9.7 | 12.9 | 0.00 | 0.00 | 0.03 | 8 | 1008.0 |
| 20260903174156 | 16 | 270 | 16.1 | 27.4 | 0.00 | 0.00 | 0.03 | 8 | 1008.0 |
| 20260903173641 | 16 | 270 | 17.7 | 27.4 | 0.00 | 0.00 | 0.03 | 8 | 1007.6 |
| 20260903173126 | 16 | 247 | 16.1 | 30.6 | 0.00 | 0.00 | 0.03 | 8 | 1007.6 |
| 20260903172604 | 16 | 270 | 12.9 | 20.9 | 0.00 | 0.00 | 0.03 | 8 | 1008.0 |
| 20260903172540 | 16 | 247 | 19.3 | 30.6 | 0.00 | 0.00 | 0.03 | 8 | 1008.1 |
| 20260903172025 | 16 | 270 | 17.7 | 30.6 | 0.00 | 0.00 | 0.03 | 8 | 1008.1 |
| 20260903171510 | 16 | 270 | 16.1 | 25.7 | 0.00 | 0.00 | 0.03 | 8 | 1008.6 |
| 20260903170949 | 16 | 225 | 20.9 | 27.4 | 0.00 | 0.00 | 0.03 | 8 | 1007.6 |
| 20260903170925 | 16 | 247 | 17.7 | 33.8 | 0.00 | 0.00 | 0.03 | 8 | 1007.4 |
| 20260903170410 | 16 | 270 | 16.1 | 30.6 | 0.00 | 0.00 | 0.03 | 7 | 1007.9 |
| 20260903165855 | 17 | 270 | 16.1 | 25.7 | 0.00 | 0.00 | 0.03 | 7 | 1007.9 |
| 20260903165333 | 17 | 270 | 11.3 | 16.1 | 0.00 | 0.00 | 0.03 | 7 | 1008.0 |
| 20260903165309 | 17 | 292 | 19.3 | 30.6 | 0.00 | 0.00 | 0.03 | 7 | 1008.0 |
| 20260903164754 | 17 | 292 | 20.9 | 30.6 | 0.00 | 0.00 | 0.03 | 7 | 1008.1 |
| 20260903164239 | 17 | 270 | 20.9 | 32.2 | 0.00 | 0.00 | 0.03 | 7 | 1007.7 |
| 20260903163718 | 17 | 270 | 17.7 | 24.1 | 0.00 | 0.00 | 0.03 | 7 | 1007.7 |
| 20260903163654 | 17 | 270 | 16.1 | 29.0 | 0.00 | 0.00 | 0.03 | 7 | 1007.7 |
| 20260903163139 | 17 | 270 | 16.1 | 30.6 | 0.00 | 0.00 | 0.03 | 7 | 1007.1 |
| 20260903162624 | 17 | 270 | 14.5 | 27.4 | 0.00 | 0.00 | 0.03 | 7 | 1007.2 |
| 20260903162101 | 17 | 270 | 9.7 | 12.9 | 0.00 | 0.00 | 0.03 | 7 | 1007.5 |
| 20260903162038 | 17 | 270 | 17.7 | 29.0 | 0.00 | 0.00 | 0.03 | 7 | 1007.4 |
| 20260903161523 | 17 | 292 | 17.7 | 29.0 | 0.00 | 0.00 | 0.03 | 7 | 1007.0 |
| 20260903161008 | 17 | 292 | 19.3 | 29.0 | 0.00 | 0.00 | 0.03 | 7 | 1007.4 |
| 20260903160447 | 17 | 270 | 14.5 | 19.3 | 0.00 | 0.00 | 0.03 | 7 | 1008.1 |
| 20260903160423 | 17 | 270 | 24.1 | 33.8 | 0.00 | 0.00 | 0.03 | 7 | 1007.6 |
| 20260903155908 | 17 | 270 | 20.9 | 33.8 | 0.00 | 0.00 | 0.03 | 7 | 1008.6 |
| 20260903155353 | 17 | 270 | 19.3 | 29.0 | 0.00 | 0.00 | 0.03 | 7 | 1008.2 |
| 20260903154832 | 17 | 292 | 12.9 | 16.1 | 0.00 | 0.00 | 0.03 | 7 | 1008.1 |
| 20260903154808 | 17 | 292 | 17.7 | 32.2 | 0.00 | 0.00 | 0.03 | 7 | 1007.9 |
| 20260903154252 | 17 | 270 | 14.5 | 20.9 | 0.00 | 0.00 | 0.03 | 7 | 1008.1 |
| 20260903153737 | 17 | 270 | 14.5 | 29.0 | 0.00 | 0.00 | 0.00 | 7 | 1008.2 |
| 20260903153216 | 18 | 270 | 12.9 | 17.7 | 0.00 | 0.00 | 0.00 | 6 | 1006.7 |
| 20260903153200 | 18 | 225 | 24.1 | 37.0 | 0.00 | 0.00 | 0.00 | 6 | 1006.7 |
| 20260903152639 | 19 | 270 | 19.3 | 33.8 | 0.00 | 0.00 | 0.00 | 6 | 1005.2 |
| 20260903152124 | 20 | 270 | 14.5 | 37.0 | 0.00 | 0.00 | 0.00 | 5 | 1004.9 |
| 20260903151609 | 20 | 315 | 14.5 | 24.1 | 0.00 | 0.00 | 0.00 | 5 | 1005.2 |
| 20260903151048 | 20 | 270 | 9.7 | 12.9 | 0.00 | 0.00 | 0.00 | 5 | 1005.1 |
| 20260903151025 | 20 | 292 | 19.3 | 25.7 | 0.00 | 0.00 | 0.00 | 5 | 1004.9 |
| 20260903150509 | 20 | 270 | 22.5 | 37.0 | 0.00 | 0.00 | 0.00 | 5 | 1004.6 |
| 20260903145954 | 20 | 292 | 30.6 | 45.1 | 0.00 | 0.00 | 0.00 | 5 | 1004.4 |
| 20260903145433 | 21 | 292 | 24.1 | 32.2 | 0.00 | 0.00 | 0.00 | 5 | 1005.0 |
| 20260903145417 | 21 | 270 | 17.7 | 29.0 | 0.00 | 0.00 | 0.00 | 5 | 1004.9 |
| 20260903144901 | 21 | 270 | 22.5 | 37.0 | 0.00 | 0.00 | 0.00 | 5 | 1004.3 |
| 20260903144346 | 21 | 247 | 17.7 | 29.0 | 0.00 | 0.00 | 0.00 | 5 | 1004.9 |
| 20260903143825 | 21 | 270 | 20.9 | 37.0 | 0.00 | 0.00 | 0.00 | 5 | 1004.6 |
| 20260903143304 | 21 | 225 | 17.7 | 24.1 | 0.00 | 0.00 | 0.00 | 5 | 1004.8 |
| 20260903143248 | 21 | 247 | 25.7 | 40.2 | 0.00 | 0.00 | 0.00 | 5 | 1004.5 |
| 20260903142733 | 21 | 225 | 20.9 | 35.4 | 0.00 | 0.00 | 0.00 | 5 | 1004.9 |
| 20260903142212 | 21 | 247 | 20.9 | 32.2 | 0.00 | 0.00 | 0.00 | 5 | 1004.2 |
| 20260903141657 | 21 | 270 | 9.7 | 19.3 | 0.00 | 0.00 | 0.00 | 5 | 1004.1 |
| 20260903141136 | 21 | 270 | 4.8 | 4.8 | 0.00 | 0.00 | 0.00 | 5 | 1004.9 |
| 20260903141119 | 21 | 270 | 8.0 | 12.9 | 0.00 | 0.00 | 0.00 | 5 | 1005.4 |
| 20260903140558 | 21 | 270 | 14.5 | 27.4 | 0.00 | 0.00 | 0.00 | 5 | 1004.0 |
| 20260903140043 | 21 | 270 | 11.3 | 22.5 | 0.00 | 0.00 | 0.00 | 5 | 1004.4 |